Time;durP1;ratioP1;P1;durP2;ratioP2;P2;SDS_P1;SDS_P2;PMS_P1;PMS_P2;Temp;Humidity;BMP_temperature;BMP_pressure;BME280_temperature;BME280_humidity;BME280_pressure;Samples;Min_cycle;Max_cycle;Signal;HPM_P1;HPM_P2
2021/04/02 00:00:59;;;;;;;2.05;1.65;;;;;;;21.09;46.63;100434.52;1724369;81;21209;-57
2021/04/02 00:03:33;;;;;;;2.22;1.57;;;;;;;21.09;46.63;100435.90;1727512;81;21641;-57
2021/04/02 00:05:58;;;;;;;2.67;1.85;;;;;;;21.07;46.66;100433.45;1726364;81;21161;-56
2021/04/02 00:08:25;;;;;;;2.58;1.85;;;;;;;21.06;46.66;100432.38;1723062;81;21217;-57
2021/04/02 00:10:55;;;;;;;2.25;1.42;;;;;;;21.05;46.67;100426.63;1721436;81;21502;-57
2021/04/02 00:13:25;;;;;;;3.37;2.05;;;;;;;21.04;46.70;100422.23;1724259;81;21155;-57
2021/04/02 00:15:52;;;;;;;2.55;1.70;;;;;;;21.02;46.72;100418.97;1725285;81;21199;-57
2021/04/02 00:18:18;;;;;;;2.27;1.67;;;;;;;21.02;46.74;100416.20;1727533;81;21194;-57
2021/04/02 00:20:45;;;;;;;2.52;1.72;;;;;;;21.01;46.76;100419.55;1727428;81;21589;-57
2021/04/02 00:23:11;;;;;;;4.47;1.55;;;;;;;21.00;46.78;100417.13;1730604;81;21180;-57
2021/04/02 00:25:38;;;;;;;3.60;1.80;;;;;;;20.99;46.78;100410.78;1732413;81;21233;-57
2021/04/02 00:28:05;;;;;;;2.52;1.72;;;;;;;20.98;46.79;100408.58;1728486;81;21268;-57
2021/04/02 00:30:54;;;;;;;2.27;1.80;;;;;;;20.97;46.81;100404.75;1725850;81;21205;-58
2021/04/02 00:33:25;;;;;;;2.72;1.60;;;;;;;20.96;46.81;100401.17;1728983;81;21594;-57
2021/04/02 00:35:51;;;;;;;4.58;2.10;;;;;;;20.95;46.82;100394.60;1735949;81;21189;-58
2021/04/02 00:38:18;;;;;;;2.60;1.80;;;;;;;20.94;46.85;100397.94;1728151;81;21190;-59
2021/04/02 00:40:51;;;;;;;2.00;1.50;;;;;;;20.93;46.86;100397.69;1727710;81;22256;-58
2021/04/02 00:43:20;;;;;;;2.55;1.90;;;;;;;20.91;46.88;100397.22;1733732;81;21285;-58
2021/04/02 00:45:47;;;;;;;2.12;1.75;;;;;;;20.90;46.89;100392.01;1730158;81;21189;-58
2021/04/02 00:48:13;;;;;;;3.40;1.80;;;;;;;20.89;46.91;100387.61;1735303;81;21266;-58
2021/04/02 00:50:51;;;;;;;3.08;1.65;;;;;;;20.90;46.95;100383.14;1728170;80;21227;-58
2021/04/02 00:53:25;;;;;;;2.67;1.57;;;;;;;20.90;46.95;100383.14;1735655;81;21210;-58
2021/04/02 00:55:51;;;;;;;4.47;1.87;;;;;;;20.89;46.95;100373.22;1734394;81;21221;-57
2021/04/02 00:58:21;;;;;;;3.45;2.10;;;;;;;20.87;46.97;100369.98;1729464;81;21209;-57
2021/04/02 01:00:47;;;;;;;2.02;1.60;;;;;;;20.87;46.97;100369.17;1731272;81;21726;-57
2021/04/02 01:03:14;;;;;;;2.90;2.00;;;;;;;20.85;46.99;100362.58;1723566;81;21266;-56
2021/04/02 01:05:44;;;;;;;2.37;1.62;;;;;;;20.85;47.01;100356.23;1722042;81;23082;-57
2021/04/02 01:08:18;;;;;;;2.65;1.67;;;;;;;20.84;47.03;100355.42;1725762;81;21200;-57
2021/04/02 01:10:44;;;;;;;2.67;1.75;;;;;;;20.83;47.03;100354.38;1735441;81;21213;-57
2021/04/02 01:13:17;;;;;;;2.58;1.60;;;;;;;20.82;47.04;100348.04;1726516;81;21223;-57
2021/04/02 01:15:52;;;;;;;2.30;1.60;;;;;;;20.80;47.05;100344.78;1728437;81;21127;-57
2021/04/02 01:18:34;;;;;;;3.35;2.10;;;;;;;20.81;47.08;100338.68;1727973;81;21206;-57
2021/04/02 01:21:07;;;;;;;3.10;1.77;;;;;;;20.80;47.08;100335.67;1730239;81;21202;-57
2021/04/02 01:23:44;;;;;;;1.98;1.70;;;;;;;20.78;47.07;100334.64;1727065;81;21162;-57
2021/04/02 01:26:40;;;;;;;2.87;1.75;;;;;;;20.77;47.10;100330.81;1723717;81;21190;-57
2021/04/02 01:29:14;;;;;;;2.55;2.08;;;;;;;20.77;47.10;100326.66;1724325;81;21211;-58
2021/04/02 01:31:44;;;;;;;3.10;2.17;;;;;;;20.75;47.12;100329.74;1727393;81;21240;-57
2021/04/02 01:34:10;;;;;;;3.45;1.87;;;;;;;20.74;47.12;100324.56;1707846;82;21430;-58
2021/04/02 01:36:40;;;;;;;2.30;1.90;;;;;;;20.72;47.14;100319.36;1724850;81;21244;-57
2021/04/02 01:39:08;;;;;;;3.93;1.80;;;;;;;20.71;47.16;100317.73;1732183;81;21189;-57
2021/04/02 01:41:35;;;;;;;3.10;2.17;;;;;;;20.71;47.17;100314.96;1724867;81;21217;-57
2021/04/02 01:44:02;;;;;;;2.70;1.80;;;;;;;20.70;47.18;100313.36;1730191;81;21221;-58
2021/04/02 01:46:29;;;;;;;2.50;1.90;;;;;;;20.70;47.19;100308.41;1728238;81;21123;-58
2021/04/02 01:48:59;;;;;;;2.62;2.08;;;;;;;20.69;47.20;100314.50;1728775;81;21385;-58
2021/04/02 01:51:25;;;;;;;2.77;1.70;;;;;;;20.68;47.21;100305.95;1723149;81;21833;-57
2021/04/02 01:53:56;;;;;;;2.70;1.77;;;;;;;20.69;47.24;100299.86;1725305;81;21217;-58
2021/04/02 01:56:22;;;;;;;2.80;1.95;;;;;;;20.68;47.24;100296.84;1726548;81;21649;-58
2021/04/02 01:58:49;;;;;;;2.77;1.87;;;;;;;20.67;47.24;100291.07;1708749;82;21184;-58
2021/04/02 02:01:18;;;;;;;3.75;2.58;;;;;;;20.67;47.28;100302.13;1707376;82;21218;-57
2021/04/02 02:03:50;;;;;;;2.40;1.77;;;;;;;20.66;47.28;100301.91;1725996;81;21237;-58
2021/04/02 02:06:17;;;;;;;2.62;1.95;;;;;;;20.65;47.28;100292.80;1722787;81;21581;-58
2021/04/02 02:08:44;;;;;;;2.58;1.90;;;;;;;20.65;47.28;100296.13;1724651;81;21206;-58
2021/04/02 02:11:13;;;;;;;2.70;2.00;;;;;;;20.64;47.29;100287.02;1702698;81;21205;-58
2021/04/02 02:13:42;;;;;;;3.17;1.95;;;;;;;20.64;47.30;100290.36;1730536;81;21171;-58
2021/04/02 02:16:10;;;;;;;3.30;2.20;;;;;;;20.63;47.31;100286.78;1708304;81;21426;-58
2021/04/02 02:18:37;;;;;;;3.10;2.30;;;;;;;20.62;47.32;100278.84;1724839;81;21217;-57
2021/04/02 02:21:08;;;;;;;3.33;1.92;;;;;;;20.61;47.32;100279.41;1699852;82;23656;-58
2021/04/02 02:23:35;;;;;;;2.47;1.98;;;;;;;20.60;47.33;100266.72;1728891;81;22678;-57
2021/04/02 02:26:04;;;;;;;2.90;2.20;;;;;;;20.60;47.35;100265.34;1705717;82;21146;-56
2021/04/02 02:28:31;;;;;;;3.17;2.00;;;;;;;20.59;47.33;100258.75;1729379;81;21215;-56
2021/04/02 02:30:58;;;;;;;3.25;2.02;;;;;;;20.59;47.37;100264.27;1694937;82;21200;-56
2021/04/02 02:33:25;;;;;;;2.75;2.10;;;;;;;20.58;47.37;100262.08;1693320;82;21341;-56
2021/04/02 02:35:53;;;;;;;3.15;2.25;;;;;;;20.57;47.35;100257.72;1695318;82;21216;-56
2021/04/02 02:38:21;;;;;;;3.05;1.87;;;;;;;20.57;47.38;100259.66;1695893;82;21265;-56
2021/04/02 02:40:48;;;;;;;3.45;2.40;;;;;;;20.56;47.36;100255.27;1682657;85;21288;-56
2021/04/02 02:43:15;;;;;;;4.47;2.05;;;;;;;20.55;47.39;100248.92;1667485;84;21186;-56
2021/04/02 02:45:42;;;;;;;3.10;2.22;;;;;;;20.55;47.41;100242.02;1678513;83;21652;-57
2021/04/02 02:48:10;;;;;;;3.62;2.40;;;;;;;20.57;47.42;100245.84;1704596;82;21883;-56
2021/04/02 02:50:41;;;;;;;2.75;2.05;;;;;;;20.56;47.41;100240.88;1688562;82;21245;-56
2021/04/02 02:53:09;;;;;;;4.92;2.50;;;;;;;20.60;47.42;100247.94;1701843;82;21230;-56
2021/04/02 02:55:38;;;;;;;3.75;2.58;;;;;;;20.61;47.41;100246.23;1690031;82;21223;-56
2021/04/02 02:58:05;;;;;;;2.80;2.05;;;;;;;20.63;47.40;100245.32;1688962;83;22005;-58
2021/04/02 03:00:35;;;;;;;2.80;2.15;;;;;;;20.65;47.39;100238.91;1695896;82;21244;-56
2021/04/02 03:03:04;;;;;;;2.87;2.20;;;;;;;20.68;47.39;100239.61;1689021;82;21229;-57
2021/04/02 03:05:30;;;;;;;3.47;2.12;;;;;;;20.69;47.38;100226.04;1698844;82;21221;-56
2021/04/02 03:08:00;;;;;;;3.77;2.40;;;;;;;20.72;47.38;100228.13;1675712;83;21205;-57
2021/04/02 03:10:27;;;;;;;2.92;2.05;;;;;;;20.76;47.35;100231.84;1684290;82;21035;-57
2021/04/02 03:12:54;;;;;;;3.42;1.95;;;;;;;20.77;47.36;100226.56;1698862;82;21216;-57
2021/04/02 03:15:21;;;;;;;4.83;2.60;;;;;;;20.79;47.32;100226.25;1695099;82;21638;-57
2021/04/02 03:17:55;;;;;;;3.75;2.20;;;;;;;20.81;47.31;100227.52;1700027;82;21236;-57
2021/04/02 03:20:22;;;;;;;3.60;2.45;;;;;;;20.83;47.29;100236.87;1698098;82;21628;-57
2021/04/02 03:22:49;;;;;;;3.42;2.25;;;;;;;20.84;47.27;100229.61;1701006;82;21742;-57
2021/04/02 03:25:19;;;;;;;5.40;2.60;;;;;;;20.86;47.26;100234.25;1698327;82;21652;-57
2021/04/02 03:27:47;;;;;;;3.12;2.35;;;;;;;20.88;47.27;100237.48;1683802;83;21102;-57
2021/04/02 03:30:15;;;;;;;3.70;2.40;;;;;;;20.90;47.23;100233.83;1677125;84;21206;-57
2021/04/02 03:32:44;;;;;;;3.20;2.22;;;;;;;20.92;47.23;100225.17;1676852;84;21197;-57
2021/04/02 03:35:12;;;;;;;2.95;2.37;;;;;;;20.94;47.21;100228.44;1688439;83;21580;-58
2021/04/02 03:37:39;;;;;;;3.37;2.30;;;;;;;20.96;47.16;100226.94;1679347;83;21232;-57
2021/04/02 03:40:09;;;;;;;3.15;2.40;;;;;;;20.98;47.16;100233.53;1682263;83;21193;-57
2021/04/02 03:42:37;;;;;;;3.10;2.10;;;;;;;21.00;47.13;100220.20;1702637;82;21276;-58
2021/04/02 03:45:07;;;;;;;3.62;2.60;;;;;;;21.02;47.13;100225.38;1693151;83;21618;-57
2021/04/02 03:47:33;;;;;;;4.33;2.22;;;;;;;21.03;47.11;100217.33;1680898;83;21396;-58
2021/04/02 03:50:02;;;;;;;3.95;2.27;;;;;;;21.03;47.11;100220.09;1688305;83;21222;-57
2021/04/02 03:52:32;;;;;;;3.67;2.47;;;;;;;21.04;47.09;100215.62;1674766;84;21246;-58
2021/04/02 03:54:59;;;;;;;4.77;2.40;;;;;;;21.05;47.09;100215.05;1700091;82;21212;-57
2021/04/02 03:57:26;;;;;;;3.10;2.55;;;;;;;21.05;47.08;100208.13;1690728;83;21198;-57
2021/04/02 03:59:54;;;;;;;3.20;2.37;;;;;;;21.06;47.06;100202.81;1699151;83;21665;-57
2021/04/02 04:02:20;;;;;;;3.08;2.40;;;;;;;21.08;47.03;100203.30;1698682;83;21462;-57
2021/04/02 04:04:47;;;;;;;3.70;2.35;;;;;;;21.08;47.05;100195.01;1697097;83;21216;-58
2021/04/02 04:07:13;;;;;;;4.10;2.65;;;;;;;21.08;47.01;100191.67;1660105;83;21190;-57
2021/04/02 04:09:40;;;;;;;3.40;2.50;;;;;;;21.10;47.01;100200.43;1689653;83;21621;-57
2021/04/02 04:12:29;;;;;;;2.95;2.27;;;;;;;21.12;46.98;100207.87;1701083;82;21259;-57
2021/04/02 04:14:56;;;;;;;3.35;2.10;;;;;;;21.12;46.96;100198.72;1753877;81;21043;-57
2021/04/02 04:17:23;;;;;;;3.98;2.50;;;;;;;21.13;46.97;100193.47;1739421;82;21194;-57
2021/04/02 04:19:50;;;;;;;4.30;2.40;;;;;;;21.15;46.92;100193.92;1764940;80;21162;-58
2021/04/02 04:22:16;;;;;;;2.80;2.42;;;;;;;21.17;46.92;100202.14;1722341;82;21234;-58
2021/04/02 04:24:48;;;;;;;2.98;2.27;;;;;;;21.18;46.90;100198.78;1760783;79;22092;-57
2021/04/02 04:27:14;;;;;;;3.00;2.20;;;;;;;21.20;46.88;100202.84;1760841;80;21535;-58
2021/04/02 04:29:44;;;;;;;3.17;2.30;;;;;;;21.21;46.85;100203.09;1723317;81;21204;-58
2021/04/02 04:32:16;;;;;;;4.50;2.92;;;;;;;21.23;46.80;100211.03;1744130;81;21213;-58
2021/04/02 04:34:43;;;;;;;2.83;2.20;;;;;;;21.23;46.80;100213.23;1743700;82;21133;-58
2021/04/02 04:37:10;;;;;;;4.80;2.30;;;;;;;21.25;46.77;100207.38;1755940;81;21591;-59
2021/04/02 04:39:37;;;;;;;3.85;2.50;;;;;;;21.26;46.76;100211.77;1717452;82;21148;-58
2021/04/02 04:42:05;;;;;;;3.60;2.27;;;;;;;21.27;46.77;100214.18;1759506;81;21125;-58
2021/04/02 04:44:32;;;;;;;3.05;2.27;;;;;;;21.28;46.74;100208.89;1739109;81;21198;-58
2021/04/02 04:46:58;;;;;;;3.37;2.50;;;;;;;21.30;46.72;100209.34;1742143;81;21181;-58
2021/04/02 04:49:25;;;;;;;3.65;2.12;;;;;;;21.32;46.70;100207.64;1759135;79;21595;-59
2021/04/02 04:51:51;;;;;;;4.05;2.33;;;;;;;21.34;46.66;100210.30;1756950;80;21181;-58
2021/04/02 04:54:22;;;;;;;3.75;2.60;;;;;;;21.36;46.64;100205.25;1756478;79;21148;-58
2021/04/02 04:56:48;;;;;;;3.67;2.52;;;;;;;21.38;46.63;100211.27;1763316;79;21127;-58
2021/04/02 04:59:14;;;;;;;3.02;2.27;;;;;;;21.39;46.58;100213.44;1733941;79;21112;-58
2021/04/02 05:01:43;;;;;;;3.72;2.30;;;;;;;21.40;46.54;100214.49;1738176;81;21221;-58
2021/04/02 05:04:10;;;;;;;2.83;2.33;;;;;;;21.43;46.52;100210.83;1761182;79;21575;-58
2021/04/02 05:06:36;;;;;;;2.80;2.20;;;;;;;21.44;46.50;100209.09;1759534;81;21202;-59
2021/04/02 05:09:03;;;;;;;3.12;2.33;;;;;;;21.46;46.49;100210.95;1759469;79;21134;-58
2021/04/02 05:11:32;;;;;;;4.42;2.20;;;;;;;21.48;46.46;100218.34;1759219;79;21211;-59
2021/04/02 05:13:59;;;;;;;3.52;2.40;;;;;;;21.50;46.42;100222.16;1761668;79;21585;-58
2021/04/02 05:16:26;;;;;;;2.87;1.95;;;;;;;21.52;46.40;100230.92;1711411;79;21126;-58
2021/04/02 05:18:53;;;;;;;2.45;2.17;;;;;;;21.53;46.34;100224.25;1747163;79;21217;-58
2021/04/02 05:21:19;;;;;;;4.75;2.47;;;;;;;21.54;46.32;100209.27;1735596;81;21521;-58
2021/04/02 05:23:49;;;;;;;4.05;2.50;;;;;;;21.56;46.32;100210.53;1760057;80;21679;-59
2021/04/02 05:26:16;;;;;;;4.85;2.25;;;;;;;21.60;46.31;100208.70;1770422;79;21565;-59
2021/04/02 05:28:42;;;;;;;7.70;3.27;;;;;;;21.63;46.30;100196.17;1720379;81;21447;-60
2021/04/02 05:31:09;;;;;;;8.30;2.67;;;;;;;21.65;46.28;100197.44;1725462;80;21309;-59
2021/04/02 05:33:36;;;;;;;8.05;3.12;;;;;;;21.70;46.26;100196.42;1749241;79;21201;-59
2021/04/02 05:36:04;;;;;;;7.20;3.00;;;;;;;21.72;46.25;100206.59;1759364;79;21150;-57
2021/04/02 05:38:30;;;;;;;5.33;2.55;;;;;;;21.74;46.25;100198.74;1763203;79;21560;-59
2021/04/02 05:41:04;;;;;;;5.85;2.52;;;;;;;21.77;46.26;100198.87;1762492;79;21196;-58
2021/04/02 05:43:54;;;;;;;5.95;2.40;;;;;;;21.79;46.24;100207.66;1759700;81;21178;-58
2021/04/02 05:46:24;;;;;;;8.50;3.47;;;;;;;21.81;46.21;100208.11;1757490;79;21154;-58
2021/04/02 05:49:02;;;;;;;5.97;3.58;;;;;;;21.83;46.26;100207.21;1762523;79;21184;-58
2021/04/02 05:51:29;;;;;;;7.17;3.08;;;;;;;21.86;46.39;100206.52;1758693;80;21312;-59
2021/04/02 05:53:56;;;;;;;7.42;2.80;;;;;;;21.88;46.53;100200.08;1760841;80;21154;-59
2021/04/02 05:56:24;;;;;;;3.75;2.12;;;;;;;21.89;46.63;100205.05;1755501;81;21915;-59
2021/04/02 05:58:51;;;;;;;7.17;2.30;;;;;;;21.88;46.70;100207.01;1758900;80;21220;-59
2021/04/02 06:01:18;;;;;;;7.10;2.70;;;;;;;21.87;46.77;100204.00;1754167;80;21201;-59
2021/04/02 06:03:44;;;;;;;7.15;3.47;;;;;;;21.84;46.87;100191.41;1758198;81;21751;-58
2021/04/02 06:06:13;;;;;;;15.65;5.42;;;;;;;21.85;46.92;100195.20;1762989;79;21200;-57
2021/04/02 06:08:44;;;;;;;6.67;3.00;;;;;;;21.87;47.00;100197.07;1756959;79;21545;-58
2021/04/02 06:11:11;;;;;;;6.47;2.45;;;;;;;21.86;47.07;100202.94;1764834;80;21147;-57
2021/04/02 06:13:38;;;;;;;5.60;2.70;;;;;;;21.85;47.14;100195.20;1766657;80;21207;-54
2021/04/02 06:16:06;;;;;;;9.30;2.62;;;;;;;21.83;47.22;100191.17;1769316;79;21171;-54
2021/04/02 06:18:40;;;;;;;5.62;2.35;;;;;;;21.79;47.32;100177.20;1738901;80;21164;-53
2021/04/02 06:21:06;;;;;;;4.25;2.30;;;;;;;21.76;47.42;100184.81;1758321;81;21135;-52
2021/04/02 06:23:35;;;;;;;3.42;2.25;;;;;;;21.71;47.48;100178.09;1751990;80;21153;-54
2021/04/02 06:26:09;;;;;;;3.95;2.50;;;;;;;21.67;47.54;100174.95;1767788;80;21253;-53
2021/04/02 06:28:38;;;;;;;5.05;2.75;;;;;;;21.62;47.61;100167.67;1775248;79;23008;-58
2021/04/02 06:31:13;;;;;;;5.08;3.00;;;;;;;21.57;47.64;100170.64;1769498;80;21456;-54
2021/04/02 06:33:46;;;;;;;4.58;2.67;;;;;;;21.53;47.67;100163.35;1751426;81;21181;-55
2021/04/02 06:36:28;;;;;;;5.20;2.40;;;;;;;21.49;47.67;100161.03;1764621;81;21201;-54
2021/04/02 06:38:58;;;;;;;5.42;2.85;;;;;;;21.43;47.69;100161.80;1746178;80;21167;-56
2021/04/02 06:41:27;;;;;;;4.43;3.10;;;;;;;21.38;47.70;100153.73;1728531;81;21612;-55
2021/04/02 06:43:59;;;;;;;4.92;2.80;;;;;;;21.33;47.69;100151.97;1729952;81;21162;-54
2021/04/02 06:46:28;;;;;;;4.05;2.70;;;;;;;21.28;47.70;100149.41;1733410;82;21548;-55
2021/04/02 06:48:58;;;;;;;5.50;3.25;;;;;;;21.24;47.69;100144.31;1742451;81;21205;-54
2021/04/02 06:51:24;;;;;;;7.10;2.97;;;;;;;21.21;47.69;100141.41;1729776;82;21268;-56
2021/04/02 06:53:55;;;;;;;4.90;2.80;;;;;;;21.17;47.65;100146.00;1771850;79;21200;-53
2021/04/02 06:56:22;;;;;;;4.60;3.17;;;;;;;21.14;47.62;100146.66;1762129;80;21215;-55
2021/04/02 06:58:49;;;;;;;6.45;3.10;;;;;;;21.10;47.59;100147.06;1756251;79;21185;-55
2021/04/02 07:01:17;;;;;;;6.85;3.80;;;;;;;21.06;47.56;100137.25;1760457;79;21146;-55
2021/04/02 07:03:45;;;;;;;5.28;3.27;;;;;;;21.03;47.53;100136.55;1737885;81;21638;-55
2021/04/02 07:06:12;;;;;;;4.78;3.33;;;;;;;20.99;47.50;100135.61;1766804;80;22110;-55
2021/04/02 07:08:39;;;;;;;7.75;3.67;;;;;;;20.96;47.46;100132.92;1769444;80;21573;-55
2021/04/02 07:11:06;;;;;;;4.90;3.00;;;;;;;20.93;47.43;100128.07;1737847;80;21127;-53
2021/04/02 07:13:38;;;;;;;5.03;3.27;;;;;;;20.93;47.42;100118.96;1741760;80;21163;-56
2021/04/02 07:16:05;;;;;;;5.08;3.47;;;;;;;20.93;47.38;100109.28;1761028;80;21145;-54
2021/04/02 07:18:32;;;;;;;7.90;3.45;;;;;;;20.94;47.37;100118.64;1763320;79;21581;-55
2021/04/02 07:20:58;;;;;;;6.50;3.52;;;;;;;20.95;47.32;100118.06;1757000;79;21162;-55
2021/04/02 07:23:26;;;;;;;5.17;3.22;;;;;;;20.96;47.27;100112.18;1769228;80;21209;-54
2021/04/02 07:25:55;;;;;;;3.92;3.08;;;;;;;20.98;47.20;100111.28;1770038;79;21643;-55
2021/04/02 07:28:23;;;;;;;5.60;3.40;;;;;;;21.00;47.15;100101.28;1760563;80;21192;-54
2021/04/02 07:30:51;;;;;;;5.75;3.58;;;;;;;21.01;47.09;100098.73;1738672;81;21198;-53
2021/04/02 07:33:17;;;;;;;5.37;3.80;;;;;;;21.03;47.03;100097.02;1685323;82;21157;-54
2021/04/02 07:36:03;;;;;;;4.22;3.30;;;;;;;21.05;46.97;100102.44;1714561;80;21185;-55
2021/04/02 07:38:32;;;;;;;5.50;3.37;;;;;;;21.05;46.91;100104.42;1735544;81;21201;-55
2021/04/02 07:41:08;;;;;;;5.72;3.37;;;;;;;21.06;46.86;100102.68;1777320;79;21648;-55
2021/04/02 07:43:36;;;;;;;4.28;3.37;;;;;;;21.07;46.79;100096.01;1747733;80;21192;-55
2021/04/02 07:46:19;;;;;;;4.10;2.87;;;;;;;21.07;46.75;100089.66;1744075;81;21593;-55
2021/04/02 07:48:53;;;;;;;4.85;3.08;;;;;;;21.09;46.67;100093.70;1738759;81;21491;-54
2021/04/02 07:51:20;;;;;;;4.55;3.10;;;;;;;21.10;46.62;100085.64;1766495;79;21201;-54
2021/04/02 07:53:47;;;;;;;4.55;3.00;;;;;;;21.13;46.57;100086.38;1768143;79;21169;-55
2021/04/02 07:56:18;;;;;;;4.65;2.80;;;;;;;21.15;46.50;100092.39;1751086;81;21190;-55
2021/04/02 07:58:51;;;;;;;4.58;3.05;;;;;;;21.17;46.46;100091.49;1773555;79;21041;-54
2021/04/02 08:01:22;;;;;;;4.22;3.08;;;;;;;21.20;46.39;100084.46;1744141;80;21142;-55
2021/04/02 08:03:49;;;;;;;4.60;2.80;;;;;;;21.23;46.33;100083.77;1737458;81;21198;-54
2021/04/02 08:06:37;;;;;;;4.83;2.92;;;;;;;21.25;46.28;100081.49;1746635;81;21174;-56
2021/04/02 08:09:06;;;;;;;3.75;2.80;;;;;;;21.28;46.18;100085.77;1739564;81;21023;-54
2021/04/02 08:11:39;;;;;;;6.03;3.20;;;;;;;21.30;46.10;100084.06;1754204;79;21196;-54
2021/04/02 08:14:12;;;;;;;4.97;3.10;;;;;;;21.33;46.05;100090.28;1768874;79;21445;-55
2021/04/02 08:16:47;;;;;;;5.37;3.05;;;;;;;21.34;45.96;100073.33;1760275;79;21657;-55
2021/04/02 08:19:28;;;;;;;4.58;3.10;;;;;;;21.36;45.92;100076.58;1758001;79;21125;-60
2021/04/02 08:22:08;;;;;;;5.85;3.30;;;;;;;21.39;45.86;100078.66;1717430;81;21248;-55
2021/04/02 08:24:37;;;;;;;5.22;2.87;;;;;;;21.40;45.78;100072.55;1746390;81;21563;-54
2021/04/02 08:27:05;;;;;;;4.55;2.90;;;;;;;21.43;45.72;100068.31;1730519;81;21232;-56
2021/04/02 08:29:33;;;;;;;6.97;3.15;;;;;;;21.43;45.68;100068.52;1760412;80;21168;-55
2021/04/02 08:32:02;;;;;;;3.98;3.15;;;;;;;21.45;45.65;100073.72;1742313;81;21851;-55
2021/04/02 08:34:30;;;;;;;4.97;3.05;;;;;;;21.46;45.59;100075.92;1764338;81;21540;-55
2021/04/02 08:37:01;;;;;;;3.37;2.42;;;;;;;21.46;45.54;100073.97;1746233;79;21103;-55
2021/04/02 08:39:27;;;;;;;4.42;3.25;;;;;;;21.49;45.50;100073.84;1760388;81;21153;-54
2021/04/02 08:41:58;;;;;;;4.60;3.20;;;;;;;21.49;45.45;100066.93;1760615;80;22053;-55
2021/04/02 08:44:35;;;;;;;4.80;3.02;;;;;;;21.50;45.44;100069.94;1762367;79;21583;-55
2021/04/02 08:47:05;;;;;;;4.72;3.40;;;;;;;21.49;45.38;100071.89;1760624;80;21646;-55
2021/04/02 08:49:54;;;;;;;4.50;3.08;;;;;;;21.51;45.35;100074.33;1737713;80;21202;-56
2021/04/02 08:52:24;;;;;;;4.42;2.55;;;;;;;21.50;45.30;100066.60;1763228;79;21344;-55
2021/04/02 08:55:03;;;;;;;4.30;2.52;;;;;;;21.55;45.31;100059.47;1842770;75;22693;-53
2021/04/02 08:57:31;;;;;;;3.72;2.55;;;;;;;21.52;45.41;100046.86;1791253;76;21120;-55
2021/04/02 09:00:01;;;;;;;4.08;2.50;;;;;;;21.55;45.46;100054.50;1810423;76;21198;-54
2021/04/02 09:02:29;;;;;;;3.00;2.35;;;;;;;21.56;45.53;100040.30;1809238;76;20988;-55
2021/04/02 09:04:57;;;;;;;4.00;2.52;;;;;;;21.58;45.61;100036.63;1817097;76;21462;-55
2021/04/02 09:07:23;;;;;;;3.05;2.27;;;;;;;21.60;45.70;100036.30;1784895;76;21202;-55
2021/04/02 09:09:50;;;;;;;3.87;2.22;;;;;;;21.61;45.74;100019.33;1798190;76;21050;-57
2021/04/02 09:12:19;;;;;;;3.47;2.22;;;;;;;21.63;45.79;100020.38;1801853;76;21462;-56
2021/04/02 09:14:51;;;;;;;5.53;2.83;;;;;;;21.65;45.85;100013.34;1740463;80;21287;-56
2021/04/02 09:17:26;;;;;;;3.77;2.20;;;;;;;21.66;45.90;100011.38;1761044;78;21186;-56
2021/04/02 09:19:54;;;;;;;3.90;2.27;;;;;;;21.66;45.92;99999.73;1764564;78;21196;-56
2021/04/02 09:22:23;;;;;;;4.62;2.40;;;;;;;21.67;45.98;100004.13;1765646;78;21215;-56
2021/04/02 09:24:50;;;;;;;2.40;1.80;;;;;;;21.69;46.02;99999.61;1772360;78;21645;-56
2021/04/02 09:27:20;;;;;;;2.98;2.20;;;;;;;21.68;46.06;100002.98;1769695;78;21173;-55
2021/04/02 09:29:55;;;;;;;3.80;2.22;;;;;;;21.68;46.08;99996.06;1792783;77;21184;-56
2021/04/02 09:32:18;;;;;;;3.75;2.30;;;;;;;21.69;46.13;99990.73;1797218;77;21876;-56
2021/04/02 09:34:44;;;;;;;3.92;2.17;;;;;;;21.70;46.15;99981.28;1744878;77;21134;-55
2021/04/02 09:37:11;;;;;;;3.60;2.12;;;;;;;21.71;46.17;99977.38;1749458;79;21653;-55
2021/04/02 09:39:40;;;;;;;3.77;2.30;;;;;;;21.72;46.18;99984.53;1744474;79;21938;-56
2021/04/02 09:42:07;;;;;;;2.42;2.08;;;;;;;21.73;46.18;99970.89;1743082;78;21146;-55
2021/04/02 09:44:38;;;;;;;3.02;2.00;;;;;;;21.74;46.21;99971.70;1741860;78;21756;-56
2021/04/02 09:47:09;;;;;;;2.83;1.98;;;;;;;21.74;46.21;99965.59;1757676;80;21637;-55
2021/04/02 09:49:37;;;;;;;3.40;2.30;;;;;;;21.75;46.24;99965.84;1752051;79;21585;-55
2021/04/02 09:52:04;;;;;;;2.70;1.85;;;;;;;21.75;46.24;99965.84;1764487;79;21222;-55
2021/04/02 09:54:31;;;;;;;4.37;2.58;;;;;;;21.76;46.25;99968.84;1759383;79;21130;-56
2021/04/02 09:57:02;;;;;;;3.67;2.05;;;;;;;21.77;46.29;99957.97;1751383;81;21216;-56
2021/04/02 09:59:29;;;;;;;3.72;2.00;;;;;;;21.78;46.29;99951.87;1742662;80;21209;-55
2021/04/02 10:01:56;;;;;;;3.02;2.02;;;;;;;21.79;46.28;99954.87;1743980;81;21628;-55
2021/04/02 10:04:22;;;;;;;3.87;1.98;;;;;;;21.79;46.30;99950.72;1749574;79;21207;-54
2021/04/02 10:06:49;;;;;;;3.02;2.10;;;;;;;21.81;46.33;99960.28;1744966;81;21185;-56
2021/04/02 10:09:16;;;;;;;2.87;2.10;;;;;;;21.82;46.32;99947.25;1739239;82;21135;-55
2021/04/02 10:11:45;;;;;;;3.08;2.10;;;;;;;21.84;46.34;99949.92;1749747;80;21201;-55
2021/04/02 10:14:13;;;;;;;3.12;2.02;;;;;;;21.84;46.31;99937.46;1743061;81;21233;-55
2021/04/02 10:16:39;;;;;;;3.85;2.27;;;;;;;21.85;46.30;99936.28;1746641;81;21184;-54
2021/04/02 10:19:07;;;;;;;2.95;1.90;;;;;;;21.86;46.30;99936.52;1739698;80;21156;-55
2021/04/02 10:21:34;;;;;;;4.87;2.15;;;;;;;21.87;46.30;99931.22;1743116;80;21194;-55
2021/04/02 10:24:00;;;;;;;3.95;2.10;;;;;;;21.90;46.28;99931.70;1739869;81;21189;-56
2021/04/02 10:26:28;;;;;;;3.17;2.05;;;;;;;21.92;46.26;99928.83;1747962;80;22157;-55
2021/04/02 10:28:54;;;;;;;4.80;2.10;;;;;;;21.93;46.23;99916.60;1738314;81;21569;-55
2021/04/02 10:31:20;;;;;;;3.37;2.20;;;;;;;21.94;46.21;99916.81;1736504;81;21217;-55
2021/04/02 10:33:47;;;;;;;2.10;1.82;;;;;;;21.95;46.19;99902.39;1742309;80;21138;-54
2021/04/02 10:36:13;;;;;;;3.87;2.33;;;;;;;21.97;46.16;99907.02;1740372;80;21209;-56
2021/04/02 10:38:40;;;;;;;3.98;2.30;;;;;;;21.95;46.12;99901.81;1742985;81;21267;-56
2021/04/02 10:41:07;;;;;;;2.60;1.90;;;;;;;21.96;46.10;99902.63;1740968;81;21352;-55
2021/04/02 10:43:33;;;;;;;4.40;2.10;;;;;;;21.97;46.07;99895.36;1744165;81;21465;-56
2021/04/02 10:46:00;;;;;;;2.92;2.15;;;;;;;22.00;46.05;99889.69;1745008;80;21138;-56
2021/04/02 10:48:27;;;;;;;3.50;2.40;;;;;;;21.99;46.02;99887.50;1746330;81;21154;-56
2021/04/02 10:50:53;;;;;;;3.30;2.15;;;;;;;22.02;45.99;99886.82;1744337;80;21230;-56
2021/04/02 10:53:20;;;;;;;4.33;2.52;;;;;;;22.04;45.93;99881.72;1745537;81;21166;-56
2021/04/02 10:55:46;;;;;;;3.65;2.22;;;;;;;22.07;45.91;99885.17;1744199;80;20962;-62
2021/04/02 10:58:12;;;;;;;2.50;1.98;;;;;;;22.08;45.85;99879.86;1768207;78;21101;-57
2021/04/02 11:00:39;;;;;;;3.15;1.75;;;;;;;22.11;45.82;99876.96;1752385;80;21190;-57
2021/04/02 11:03:07;;;;;;;3.70;2.25;;;;;;;22.13;45.76;99876.86;1768171;78;21916;-55
2021/04/02 11:05:34;;;;;;;3.70;2.15;;;;;;;22.14;45.74;99863.24;1797150;77;21592;-56
2021/04/02 11:08:00;;;;;;;4.20;2.77;;;;;;;22.17;45.70;99874.19;1794516;79;21136;-56
2021/04/02 11:10:27;;;;;;;3.90;2.60;;;;;;;22.18;45.65;99863.34;1791162;79;21142;-56
2021/04/02 11:12:54;;;;;;;3.98;2.80;;;;;;;22.19;45.62;99855.27;1791187;78;21173;-56
2021/04/02 11:15:21;;;;;;;2.87;2.17;;;;;;;22.21;45.57;99848.78;1739696;80;21670;-57
2021/04/02 11:17:48;;;;;;;4.10;2.50;;;;;;;22.21;45.56;99845.44;1755573;78;21200;-56
2021/04/02 11:20:17;;;;;;;4.62;2.55;;;;;;;22.22;45.53;99844.28;1757787;78;21608;-56
2021/04/02 11:22:44;;;;;;;2.70;2.15;;;;;;;22.24;45.48;99839.75;1756377;78;21137;-56
2021/04/02 11:25:12;;;;;;;3.10;2.20;;;;;;;22.26;45.44;99836.06;1759325;78;21141;-56
2021/04/02 11:27:39;;;;;;;3.08;2.30;;;;;;;22.25;45.42;99826.95;1745225;80;21825;-55
2021/04/02 11:30:08;;;;;;;3.55;2.35;;;;;;;22.27;45.39;99827.98;1741423;80;21195;-56
2021/04/02 11:32:34;;;;;;;3.45;2.55;;;;;;;22.26;45.38;99818.87;1761439;79;21105;-57
2021/04/02 11:35:01;;;;;;;3.80;2.33;;;;;;;;;;1769787;79;21201;-55